Time;durP1;ratioP1;P1;durP2;ratioP2;P2;SDS_P1;SDS_P2;PMS_P1;PMS_P2;Temp;Humidity;BMP_temperature;BMP_pressure;BME280_temperature;BME280_humidity;BME280_pressure;Samples;Min_cycle;Max_cycle;Signal;HPM_P1;HPM_P2
2023/05/24 00:00:17;;;;;;;17.60;4.75;;;10.80;99.90;;;;;;5136023;27;20043;-76
2023/05/24 00:02:45;;;;;;;15.35;3.20;;;10.80;99.90;;;;;;5135466;27;20107;-76
2023/05/24 00:05:11;;;;;;;15.02;3.78;;;10.80;99.90;;;;;;5135963;27;20055;-76
2023/05/24 00:07:37;;;;;;;14.88;3.13;;;10.80;99.90;;;;;;5135953;27;20042;-76
2023/05/24 00:10:04;;;;;;;16.20;3.28;;;10.70;99.90;;;;;;5137126;27;20048;-77
2023/05/24 00:12:32;;;;;;;15.82;4.18;;;10.80;99.90;;;;;;5135863;27;20035;-77
2023/05/24 00:14:58;;;;;;;19.15;4.38;;;10.80;99.90;;;;;;5137177;27;20092;-76
2023/05/24 00:17:24;;;;;;;17.83;4.22;;;10.70;99.90;;;;;;5136047;27;20046;-76
2023/05/24 00:19:51;;;;;;;12.63;3.92;;;10.70;99.90;;;;;;5135699;27;20043;-77
2023/05/24 00:22:19;;;;;;;21.50;4.30;;;10.60;99.90;;;;;;5135870;27;20061;-76
2023/05/24 00:24:46;;;;;;;12.48;3.60;;;10.60;99.90;;;;;;5135475;27;20500;-76
2023/05/24 00:27:13;;;;;;;15.10;4.03;;;10.70;99.90;;;;;;5135727;27;20077;-76
2023/05/24 00:29:39;;;;;;;12.63;3.28;;;10.70;99.90;;;;;;5135508;27;20043;-76
2023/05/24 00:32:05;;;;;;;17.23;4.53;;;10.70;99.90;;;;;;5135786;27;20054;-76
2023/05/24 00:34:30;;;;;;;12.82;3.08;;;10.70;99.90;;;;;;5135464;27;20390;-76
2023/05/24 00:36:56;;;;;;;14.88;3.47;;;10.70;99.90;;;;;;5135383;27;20047;-77
2023/05/24 00:39:22;;;;;;;15.07;3.22;;;10.70;99.90;;;;;;5135185;27;20045;-77
2023/05/24 00:41:48;;;;;;;17.40;3.83;;;10.70;99.90;;;;;;5135222;27;20043;-76
2023/05/24 00:44:14;;;;;;;18.65;3.60;;;10.70;99.90;;;;;;5135339;27;20137;-77
2023/05/24 00:46:40;;;;;;;18.88;4.07;;;10.70;99.90;;;;;;5135151;27;20043;-77
2023/05/24 00:49:07;;;;;;;19.60;4.30;;;10.60;99.90;;;;;;5135387;27;20045;-76
2023/05/24 00:51:37;;;;;;;21.17;4.10;;;10.70;99.90;;;;;;5135006;27;20047;-76
2023/05/24 00:54:03;;;;;;;14.63;3.97;;;10.70;99.90;;;;;;5135245;27;20051;-76
2023/05/24 00:56:30;;;;;;;13.52;3.53;;;10.70;99.90;;;;;;5135202;27;20428;-77
2023/05/24 00:58:56;;;;;;;14.13;3.78;;;10.70;99.90;;;;;;5134900;27;20042;-76
2023/05/24 01:01:29;;;;;;;17.27;3.53;;;10.70;99.90;;;;;;5134729;27;20050;-77
2023/05/24 01:03:56;;;;;;;16.63;3.63;;;10.70;99.90;;;;;;5134925;27;20095;-77
2023/05/24 01:06:23;;;;;;;14.90;3.25;;;10.70;99.90;;;;;;5134593;27;20497;-77
2023/05/24 01:09:17;;;;;;;20.27;3.70;;;10.70;99.90;;;;;;5134688;27;20039;-76
2023/05/24 01:12:17;;;;;;;15.13;4.28;;;10.70;99.90;;;;;;5135003;27;20032;-76
2023/05/24 01:14:57;;;;;;;10.82;2.60;;;10.70;99.90;;;;;;5092422;27;20051;-77
2023/05/24 01:17:30;;;;;;;16.83;3.17;;;10.80;99.90;;;;;;5134600;27;20042;-77
2023/05/24 01:20:01;;;;;;;18.42;3.30;;;10.80;99.90;;;;;;5134630;27;20147;-77
2023/05/24 01:22:52;;;;;;;16.95;4.40;;;10.70;99.90;;;;;;5134689;27;20047;-77
2023/05/24 01:25:32;;;;;;;13.88;3.95;;;10.70;99.90;;;;;;5134244;27;20047;-77
2023/05/24 01:27:59;;;;;;;15.55;3.08;;;10.70;99.90;;;;;;5134937;27;20039;-76
2023/05/24 01:30:27;;;;;;;13.25;3.97;;;10.70;99.90;;;;;;5134580;27;20039;-77
2023/05/24 01:32:53;;;;;;;16.42;3.13;;;10.70;99.90;;;;;;5134238;27;20057;-76
2023/05/24 01:35:18;;;;;;;13.38;2.97;;;10.70;99.90;;;;;;5134060;27;20427;-76
2023/05/24 01:37:44;;;;;;;12.15;2.72;;;10.80;99.90;;;;;;5134500;27;20043;-77
2023/05/24 01:40:11;;;;;;;12.93;3.15;;;10.70;99.90;;;;;;5135352;27;20502;-77
2023/05/24 01:43:03;;;;;;;12.05;3.17;;;10.70;99.90;;;;;;5134287;27;20474;-77
2023/05/24 01:46:02;;;;;;;14.13;2.80;;;10.70;99.90;;;;;;5134088;27;20494;-76
2023/05/24 01:49:02;;;;;;;14.57;3.38;;;10.70;99.90;;;;;;5133927;27;20392;-76
2023/05/24 01:51:37;;;;;;;18.73;3.60;;;10.70;99.90;;;;;;5134364;27;20043;-76
2023/05/24 01:54:05;;;;;;;15.27;2.55;;;10.70;99.90;;;;;;5133826;27;20039;-77
2023/05/24 01:56:31;;;;;;;14.52;2.92;;;10.70;99.90;;;;;;5133915;27;20047;-77
2023/05/24 01:58:58;;;;;;;14.50;2.65;;;10.60;99.90;;;;;;5133658;27;20079;-77
2023/05/24 02:01:27;;;;;;;16.10;2.95;;;10.70;99.90;;;;;;5133580;27;20047;-77
2023/05/24 02:03:54;;;;;;;16.52;3.10;;;10.70;99.90;;;;;;5133074;27;20051;-77
2023/05/24 02:06:20;;;;;;;13.30;2.78;;;10.70;99.90;;;;;;5134901;27;20047;-77
2023/05/24 02:08:45;;;;;;;15.27;3.35;;;10.60;99.90;;;;;;5133511;27;20058;-77
2023/05/24 02:11:11;;;;;;;11.65;3.65;;;10.70;99.90;;;;;;5134262;27;20035;-77
2023/05/24 02:13:37;;;;;;;13.52;3.10;;;10.70;99.90;;;;;;5133953;27;20126;-77
2023/05/24 02:16:03;;;;;;;14.85;3.05;;;10.70;99.90;;;;;;5133754;27;20501;-76
2023/05/24 02:18:33;;;;;;;11.32;3.03;;;10.70;99.90;;;;;;5133630;27;20051;-77
2023/05/24 02:21:01;;;;;;;14.55;3.20;;;10.70;99.90;;;;;;5133843;27;20046;-76
2023/05/24 02:23:27;;;;;;;16.85;3.28;;;10.70;99.90;;;;;;5133352;27;20046;-77
2023/05/24 02:25:52;;;;;;;15.43;2.92;;;10.70;99.90;;;;;;5132358;27;20047;-77
2023/05/24 02:28:18;;;;;;;16.25;3.17;;;10.70;99.90;;;;;;5133415;27;20046;-77
2023/05/24 02:30:44;;;;;;;15.50;3.13;;;10.70;99.90;;;;;;5133344;27;20039;-77
2023/05/24 02:33:11;;;;;;;9.43;2.85;;;10.70;99.90;;;;;;5133601;27;20050;-77
2023/05/24 02:35:36;;;;;;;13.48;2.70;;;10.70;99.90;;;;;;5133236;27;20082;-76
2023/05/24 02:38:05;;;;;;;12.55;2.88;;;10.70;99.90;;;;;;5133172;28;20123;-77
2023/05/24 02:40:31;;;;;;;15.40;2.95;;;10.70;99.90;;;;;;5133373;28;20047;-77
2023/05/24 02:42:57;;;;;;;13.48;2.67;;;10.70;99.90;;;;;;5133224;28;20371;-76
2023/05/24 02:45:22;;;;;;;18.02;3.13;;;10.80;99.90;;;;;;5133218;28;20047;-77
2023/05/24 02:47:48;;;;;;;18.02;3.25;;;10.70;99.90;;;;;;5133228;28;20039;-77
2023/05/24 02:50:14;;;;;;;10.77;2.88;;;10.80;99.90;;;;;;5132966;28;20051;-77
2023/05/24 02:52:39;;;;;;;13.10;3.47;;;10.80;99.90;;;;;;5133048;28;20118;-77
2023/05/24 02:55:06;;;;;;;23.83;3.30;;;10.80;99.90;;;;;;5133336;28;20047;-77
2023/05/24 02:57:33;;;;;;;18.83;4.22;;;10.80;99.90;;;;;;5133169;28;20089;-77
2023/05/24 02:59:58;;;;;;;16.02;3.13;;;10.80;99.90;;;;;;5133357;28;20542;-76
2023/05/24 03:02:27;;;;;;;11.75;2.70;;;10.80;99.90;;;;;;5132736;28;20160;-77
2023/05/24 03:05:00;;;;;;;11.18;2.42;;;10.80;99.90;;;;;;5132820;28;20043;-77
2023/05/24 03:07:25;;;;;;;13.68;2.70;;;10.70;99.90;;;;;;5134959;28;20047;-77
2023/05/24 03:09:54;;;;;;;17.88;4.45;;;10.80;99.90;;;;;;5133556;28;20039;-77
2023/05/24 03:12:20;;;;;;;18.42;3.30;;;10.80;99.90;;;;;;5132938;28;20478;-77
2023/05/24 03:14:45;;;;;;;14.50;4.18;;;10.80;99.90;;;;;;5132909;28;20043;-77
2023/05/24 03:17:11;;;;;;;13.52;3.10;;;10.90;99.90;;;;;;5132926;28;20043;-76
2023/05/24 03:19:36;;;;;;;14.88;3.28;;;10.80;99.90;;;;;;5132500;28;20049;-76
2023/05/24 03:22:02;;;;;;;10.88;3.20;;;10.80;99.90;;;;;;5132522;28;20043;-77
2023/05/24 03:24:28;;;;;;;15.57;4.18;;;10.80;99.90;;;;;;5132510;28;20104;-77
2023/05/24 03:26:53;;;;;;;12.15;3.05;;;10.90;99.90;;;;;;5132687;28;20054;-77
2023/05/24 03:29:19;;;;;;;11.70;3.00;;;10.90;99.90;;;;;;5133118;28;20065;-77
2023/05/24 03:31:45;;;;;;;20.58;4.05;;;10.90;99.90;;;;;;5131874;28;20051;-77
2023/05/24 03:34:11;;;;;;;13.07;4.07;;;10.90;99.90;;;;;;5132468;28;20044;-77
2023/05/24 03:36:36;;;;;;;12.93;3.33;;;11.00;99.90;;;;;;5133161;27;20100;-76
2023/05/24 03:39:03;;;;;;;22.23;3.75;;;10.90;99.90;;;;;;5136216;27;20143;-77
2023/05/24 03:41:29;;;;;;;14.63;2.78;;;10.90;99.90;;;;;;5136176;27;20054;-77
2023/05/24 03:43:55;;;;;;;17.92;3.58;;;10.90;99.90;;;;;;5136347;27;20065;-77
2023/05/24 03:46:21;;;;;;;17.90;3.80;;;10.90;99.90;;;;;;5135914;27;20051;-77
2023/05/24 03:48:48;;;;;;;17.90;3.78;;;10.90;99.90;;;;;;5136042;27;20035;-77
2023/05/24 03:51:14;;;;;;;10.40;2.90;;;10.90;99.90;;;;;;5137393;27;20051;-77
2023/05/24 03:53:39;;;;;;;17.55;4.13;;;10.90;99.90;;;;;;5136051;27;20045;-77
2023/05/24 03:56:05;;;;;;;15.57;3.22;;;10.90;99.90;;;;;;5136236;27;20078;-77
2023/05/24 03:58:31;;;;;;;18.52;3.65;;;10.80;99.90;;;;;;5135870;27;20193;-77
2023/05/24 04:00:56;;;;;;;10.02;2.20;;;10.90;99.90;;;;;;5135999;27;20058;-77
2023/05/24 04:03:24;;;;;;;10.20;3.70;;;10.90;99.90;;;;;;5135643;27;20072;-77
2023/05/24 04:05:51;;;;;;;18.33;3.85;;;10.90;99.90;;;;;;5135290;27;20047;-77
2023/05/24 04:08:16;;;;;;;17.13;3.08;;;10.90;99.90;;;;;;5136969;27;20051;-77
2023/05/24 04:10:42;;;;;;;14.85;3.10;;;10.90;99.90;;;;;;5135640;27;20122;-77
2023/05/24 04:13:08;;;;;;;12.90;3.72;;;10.90;99.90;;;;;;5134874;27;20066;-77
2023/05/24 04:15:33;;;;;;;19.92;3.33;;;10.90;99.90;;;;;;5135622;27;20050;-77
2023/05/24 04:17:59;;;;;;;13.65;3.47;;;11.00;99.90;;;;;;5135639;27;20066;-76
2023/05/24 04:20:26;;;;;;;17.35;3.85;;;11.00;99.90;;;;;;5135831;27;20047;-77
2023/05/24 04:22:52;;;;;;;16.80;3.35;;;11.00;99.90;;;;;;5136924;27;20065;-77
2023/05/24 04:25:18;;;;;;;15.57;3.60;;;11.00;99.90;;;;;;5135566;27;20031;-76
2023/05/24 04:27:47;;;;;;;15.48;4.00;;;11.00;99.90;;;;;;5135661;27;20383;-76
2023/05/24 04:30:14;;;;;;;10.43;3.25;;;11.00;99.90;;;;;;5135629;27;20090;-77
2023/05/24 04:32:40;;;;;;;17.95;3.50;;;11.00;99.90;;;;;;5135336;27;20475;-76
2023/05/24 04:35:15;;;;;;;15.32;3.70;;;11.00;99.90;;;;;;5135363;27;20043;-76
2023/05/24 04:37:41;;;;;;;16.50;3.20;;;11.10;99.90;;;;;;5135404;27;20409;-76
2023/05/24 04:40:07;;;;;;;16.02;2.92;;;11.10;99.90;;;;;;5135143;27;20044;-77
2023/05/24 04:42:34;;;;;;;12.32;2.67;;;11.20;99.90;;;;;;5135035;27;20547;-77
2023/05/24 04:44:59;;;;;;;14.00;3.80;;;11.20;99.90;;;;;;5134301;27;20051;-76
2023/05/24 04:47:28;;;;;;;14.68;3.58;;;11.10;99.90;;;;;;5135133;27;20035;-76
2023/05/24 04:49:54;;;;;;;18.00;3.33;;;11.20;99.90;;;;;;5133978;27;20042;-76
2023/05/24 04:52:19;;;;;;;16.40;4.03;;;11.10;99.90;;;;;;5134873;27;20047;-77
2023/05/24 04:54:54;;;;;;;12.63;3.75;;;11.10;99.90;;;;;;5134808;27;20054;-77
2023/05/24 04:57:20;;;;;;;13.27;3.30;;;11.10;99.90;;;;;;5134694;27;20047;-76
2023/05/24 04:59:46;;;;;;;8.68;3.47;;;11.20;99.90;;;;;;5135027;27;20046;-76
2023/05/24 05:02:11;;;;;;;8.05;2.92;;;11.10;99.90;;;;;;5134394;27;20211;-77
2023/05/24 05:04:41;;;;;;;14.73;4.13;;;11.20;99.90;;;;;;5134180;27;20043;-76
2023/05/24 05:07:07;;;;;;;11.70;4.00;;;11.20;99.90;;;;;;5134643;27;20051;-77
2023/05/24 05:09:33;;;;;;;15.88;3.90;;;11.10;99.90;;;;;;5134860;27;20049;-77
2023/05/24 05:11:59;;;;;;;18.23;3.63;;;11.10;99.90;;;;;;5134446;27;20043;-77
2023/05/24 05:14:24;;;;;;;16.63;3.65;;;11.10;99.90;;;;;;5134656;27;20039;-77
2023/05/24 05:16:53;;;;;;;10.45;3.20;;;11.20;99.90;;;;;;5135713;27;20390;-76
2023/05/24 05:19:18;;;;;;;8.98;2.70;;;11.20;99.90;;;;;;5134630;27;20043;-77
2023/05/24 05:21:44;;;;;;;10.63;2.97;;;11.20;99.90;;;;;;5134493;27;20120;-77
2023/05/24 05:24:10;;;;;;;11.52;3.20;;;11.30;99.90;;;;;;5134173;27;20047;-77
2023/05/24 05:26:36;;;;;;;13.45;3.28;;;11.20;99.90;;;;;;5134083;27;20055;-77
2023/05/24 05:29:01;;;;;;;18.30;3.85;;;11.30;99.90;;;;;;5134145;27;20046;-77
2023/05/24 05:31:30;;;;;;;14.10;2.75;;;11.30;99.90;;;;;;5134313;27;20047;-76
2023/05/24 05:33:56;;;;;;;14.30;3.65;;;11.30;99.90;;;;;;5134293;27;20039;-77
2023/05/24 05:36:21;;;;;;;16.23;3.63;;;11.30;99.90;;;;;;5134310;27;20074;-77
2023/05/24 05:38:47;;;;;;;16.23;3.13;;;11.30;99.90;;;;;;5133990;27;20532;-77
2023/05/24 05:41:12;;;;;;;15.30;3.50;;;11.20;99.90;;;;;;5135302;27;20050;-77
2023/05/24 05:43:38;;;;;;;15.15;2.90;;;11.30;99.90;;;;;;5133907;27;20092;-77
2023/05/24 05:46:04;;;;;;;14.30;3.58;;;11.30;99.90;;;;;;5134013;27;20050;-77
2023/05/24 05:48:32;;;;;;;13.68;2.90;;;11.30;99.90;;;;;;5132666;27;20451;-77
2023/05/24 05:51:07;;;;;;;15.48;3.35;;;11.30;99.90;;;;;;5133749;27;20047;-76
2023/05/24 05:53:33;;;;;;;12.73;2.85;;;11.30;99.90;;;;;;5133691;27;20035;-77
2023/05/24 05:55:58;;;;;;;12.43;2.78;;;11.40;99.90;;;;;;5133876;27;20043;-77
2023/05/24 05:58:24;;;;;;;9.60;2.60;;;11.40;99.90;;;;;;5133762;27;20490;-76
2023/05/24 06:00:50;;;;;;;8.65;2.85;;;11.40;99.90;;;;;;5133780;27;20054;-77
2023/05/24 06:03:19;;;;;;;13.48;2.53;;;11.40;99.90;;;;;;5133432;27;20057;-77
2023/05/24 06:05:45;;;;;;;15.00;3.25;;;11.40;99.90;;;;;;5133575;27;20059;-77
2023/05/24 06:08:10;;;;;;;9.55;2.92;;;11.50;99.90;;;;;;5133423;27;20066;-77
2023/05/24 06:10:39;;;;;;;15.13;3.40;;;11.50;99.90;;;;;;5133402;27;20043;-77
2023/05/24 06:13:04;;;;;;;15.02;3.35;;;11.50;99.90;;;;;;5133343;27;20487;-77
2023/05/24 06:15:32;;;;;;;16.10;3.45;;;11.60;99.90;;;;;;5133288;27;20156;-78
2023/05/24 06:17:59;;;;;;;10.43;3.15;;;11.60;99.90;;;;;;5134624;27;20054;-77
2023/05/24 06:20:25;;;;;;;12.52;3.45;;;11.60;99.90;;;;;;5133276;27;20088;-77
2023/05/24 06:22:51;;;;;;;14.88;3.30;;;11.60;99.90;;;;;;5132931;27;20035;-76
2023/05/24 06:25:19;;;;;;;10.63;3.40;;;11.70;99.90;;;;;;5128829;27;20046;-76
2023/05/24 06:27:45;;;;;;;11.57;3.25;;;11.80;99.90;;;;;;5121349;27;20087;-75
2023/05/24 06:30:12;;;;;;;13.90;3.25;;;11.80;99.90;;;;;;5112408;28;20048;-76
2023/05/24 06:32:37;;;;;;;13.95;3.10;;;11.80;99.90;;;;;;5112586;28;20475;-76
2023/05/24 06:35:10;;;;;;;16.77;4.00;;;11.80;99.90;;;;;;5112614;28;20058;-76
2023/05/24 06:37:37;;;;;;;18.08;3.45;;;11.90;99.90;;;;;;5112390;28;20082;-76
2023/05/24 06:40:05;;;;;;;12.77;3.15;;;11.90;99.90;;;;;;5112660;28;20090;-76
2023/05/24 06:42:31;;;;;;;12.40;3.05;;;11.90;99.90;;;;;;5112453;28;20063;-76
2023/05/24 06:44:57;;;;;;;12.85;2.70;;;11.90;99.90;;;;;;5112204;28;20074;-76
2023/05/24 06:47:22;;;;;;;11.48;3.03;;;11.90;99.90;;;;;;5112147;28;20044;-75
2023/05/24 06:49:48;;;;;;;13.43;2.63;;;12.00;99.90;;;;;;5112254;28;20043;-75
2023/05/24 06:52:14;;;;;;;10.80;2.83;;;12.00;99.90;;;;;;5112114;28;20054;-75
2023/05/24 06:54:40;;;;;;;13.90;3.97;;;12.00;99.90;;;;;;5113508;28;20078;-75
2023/05/24 06:57:06;;;;;;;16.33;3.85;;;12.10;99.90;;;;;;5112437;28;20081;-75
2023/05/24 06:59:35;;;;;;;19.27;3.45;;;12.10;99.90;;;;;;5112005;28;20056;-75
2023/05/24 07:02:03;;;;;;;13.50;3.13;;;12.20;99.90;;;;;;5113076;28;20052;-75
2023/05/24 07:04:29;;;;;;;16.95;3.92;;;12.20;99.90;;;;;;5112044;28;20563;-75
2023/05/24 07:06:56;;;;;;;13.63;3.38;;;12.30;99.90;;;;;;5111981;28;20630;-75
2023/05/24 07:09:21;;;;;;;19.48;4.32;;;12.30;99.90;;;;;;5112249;28;20047;-75
2023/05/24 07:11:47;;;;;;;15.77;4.30;;;12.30;99.90;;;;;;5113323;28;20146;-76
2023/05/24 07:14:13;;;;;;;14.70;3.58;;;12.30;99.90;;;;;;5116006;28;20071;-75
2023/05/24 07:16:38;;;;;;;14.13;3.17;;;12.40;99.90;;;;;;5115932;28;20043;-75
2023/05/24 07:19:04;;;;;;;11.25;2.80;;;12.40;99.90;;;;;;5116189;28;20055;-76
2023/05/24 07:21:30;;;;;;;15.68;3.25;;;12.40;99.90;;;;;;5116259;28;20055;-77
2023/05/24 07:23:56;;;;;;;17.60;3.28;;;12.50;99.90;;;;;;5116117;28;20047;-77
2023/05/24 07:26:22;;;;;;;11.10;3.47;;;12.60;99.90;;;;;;5115751;28;20457;-76
2023/05/24 07:28:48;;;;;;;9.80;2.97;;;12.70;99.90;;;;;;5115779;28;20172;-76
2023/05/24 07:31:14;;;;;;;10.32;3.00;;;12.70;99.90;;;;;;5115680;28;20130;-76
2023/05/24 07:33:47;;;;;;;11.25;2.80;;;12.80;99.90;;;;;;5115902;28;20101;-76
2023/05/24 07:36:16;;;;;;;11.48;3.40;;;12.70;99.90;;;;;;5115953;28;20119;-76
2023/05/24 07:38:42;;;;;;;14.15;3.08;;;12.80;99.90;;;;;;5115575;28;20130;-76
2023/05/24 07:41:10;;;;;;;10.27;3.42;;;12.80;99.90;;;;;;5117062;28;20135;-77
2023/05/24 07:43:36;;;;;;;11.98;3.67;;;12.80;99.90;;;;;;5115691;28;20048;-77
2023/05/24 07:46:02;;;;;;;14.68;3.38;;;12.80;99.90;;;;;;5115510;28;20113;-76
2023/05/24 07:48:28;;;;;;;12.95;4.07;;;12.90;99.90;;;;;;5115358;28;20047;-76
2023/05/24 07:50:54;;;;;;;12.23;2.53;;;13.20;99.90;;;;;;5115390;28;20047;-76
2023/05/24 07:53:19;;;;;;;15.55;2.78;;;13.50;99.90;;;;;;5115629;28;20050;-77
2023/05/24 07:55:45;;;;;;;9.20;2.80;;;13.70;99.90;;;;;;5115317;28;20051;-77
2023/05/24 07:58:11;;;;;;;10.57;2.78;;;14.00;99.90;;;;;;5115410;28;20043;-77
2023/05/24 08:00:37;;;;;;;12.85;3.03;;;14.20;99.90;;;;;;5115444;28;20058;-77
2023/05/24 08:03:06;;;;;;;11.50;2.58;;;14.40;99.90;;;;;;5115038;28;20051;-77
2023/05/24 08:05:32;;;;;;;10.80;2.50;;;14.60;99.90;;;;;;5114861;28;20402;-77
2023/05/24 08:07:57;;;;;;;8.60;2.47;;;14.80;99.90;;;;;;5115047;28;20054;-76
2023/05/24 08:10:24;;;;;;;8.77;2.70;;;14.90;99.90;;;;;;5116104;28;20039;-77
2023/05/24 08:12:53;;;;;;;13.77;2.92;;;15.00;99.90;;;;;;5114943;28;20053;-77
2023/05/24 08:15:19;;;;;;;10.60;2.20;;;15.10;99.90;;;;;;5115130;28;20035;-77
2023/05/24 08:17:45;;;;;;;7.18;2.75;;;15.30;99.90;;;;;;5115138;28;20067;-77
2023/05/24 08:20:13;;;;;;;11.63;2.80;;;15.30;99.90;;;;;;5116307;28;20043;-77
2023/05/24 08:22:39;;;;;;;10.63;2.97;;;15.40;99.90;;;;;;5114727;27;20048;-76
2023/05/24 08:25:05;;;;;;;8.75;2.25;;;15.70;99.90;;;;;;5114608;28;20543;-76
2023/05/24 08:27:31;;;;;;;10.52;3.30;;;15.90;99.90;;;;;;5114933;28;20134;-77
2023/05/24 08:29:57;;;;;;;10.40;2.60;;;15.80;99.90;;;;;;5115844;28;20096;-77
2023/05/24 08:32:23;;;;;;;12.45;2.60;;;15.80;99.90;;;;;;5114840;28;20119;-76
2023/05/24 08:34:49;;;;;;;13.27;2.83;;;15.90;99.90;;;;;;5115724;28;20127;-77
2023/05/24 08:37:18;;;;;;;10.52;3.28;;;15.70;99.90;;;;;;5114534;28;20123;-76
2023/05/24 08:39:44;;;;;;;12.98;2.78;;;15.50;99.90;;;;;;5115944;27;20044;-77
2023/05/24 08:42:12;;;;;;;10.00;2.97;;;15.50;99.90;;;;;;5114328;28;20053;-76
2023/05/24 08:45:01;;;;;;;13.07;2.65;;;15.30;99.90;;;;;;5114398;28;20490;-77
2023/05/24 08:47:29;;;;;;;10.10;2.90;;;15.20;99.90;;;;;;5100012;28;20082;-79
2023/05/24 08:49:56;;;;;;;8.45;2.20;;;15.20;99.90;;;;;;5114237;28;20055;-76
2023/05/24 08:52:26;;;;;;;10.25;2.80;;;15.30;99.90;;;;;;5114410;28;20503;-76
2023/05/24 08:54:52;;;;;;;10.07;3.20;;;15.30;99.90;;;;;;5114160;28;20056;-77
2023/05/24 08:57:18;;;;;;;12.45;2.88;;;15.20;99.90;;;;;;5114310;28;20036;-78
2023/05/24 08:59:44;;;;;;;14.98;3.30;;;15.20;99.90;;;;;;5114052;28;20081;-77
2023/05/24 09:02:16;;;;;;;12.82;3.13;;;15.10;99.90;;;;;;5123119;27;20075;-76
2023/05/24 09:04:50;;;;;;;15.80;3.30;;;15.00;99.90;;;;;;5123235;27;20063;-77
2023/05/24 09:07:19;;;;;;;14.65;2.75;;;15.00;99.90;;;;;;5114139;28;20487;-77
2023/05/24 09:09:56;;;;;;;11.73;3.10;;;14.90;99.90;;;;;;5113904;28;20062;-76
2023/05/24 09:12:23;;;;;;;13.68;3.20;;;14.80;99.90;;;;;;5113764;28;20056;-76
2023/05/24 09:14:49;;;;;;;8.80;2.80;;;14.70;99.90;;;;;;5115050;28;20092;-76
2023/05/24 09:17:15;;;;;;;10.73;2.70;;;14.70;99.90;;;;;;5113197;28;20487;-76
2023/05/24 09:19:49;;;;;;;13.15;3.05;;;14.80;99.90;;;;;;5113464;28;20043;-76
2023/05/24 09:22:19;;;;;;;11.73;3.17;;;14.70;99.90;;;;;;5113595;28;20406;-77
2023/05/24 09:24:51;;;;;;;12.75;2.95;;;14.70;99.90;;;;;;5113557;28;20097;-76
2023/05/24 09:27:21;;;;;;;11.45;2.88;;;14.50;99.90;;;;;;5114731;28;20043;-76
2023/05/24 09:29:48;;;;;;;13.18;2.58;;;14.60;99.90;;;;;;5114779;28;20054;-77
2023/05/24 09:32:14;;;;;;;12.30;2.60;;;14.60;99.90;;;;;;5113270;28;20043;-76
2023/05/24 09:34:47;;;;;;;11.50;3.05;;;14.80;99.90;;;;;;5112823;28;20475;-77
2023/05/24 09:37:17;;;;;;;10.82;2.90;;;14.80;99.90;;;;;;5113170;28;20486;-76
2023/05/24 09:39:46;;;;;;;14.68;3.17;;;14.80;99.90;;;;;;5133665;27;20553;-76
2023/05/24 09:42:17;;;;;;;13.05;3.42;;;14.70;99.90;;;;;;5133955;27;20402;-77
2023/05/24 09:45:07;;;;;;;11.95;2.78;;;14.70;99.90;;;;;;5133646;27;20502;-77
2023/05/24 09:47:35;;;;;;;11.23;3.17;;;14.70;99.90;;;;;;5133967;27;20132;-78
2023/05/24 09:50:05;;;;;;;12.73;2.65;;;14.80;99.90;;;;;;5133967;27;20104;-76
2023/05/24 09:52:35;;;;;;;10.75;2.72;;;14.90;99.90;;;;;;5133553;27;20054;-77
2023/05/24 09:55:13;;;;;;;10.82;2.95;;;15.00;99.90;;;;;;5134705;27;20076;-77
2023/05/24 09:57:40;;;;;;;9.50;2.83;;;14.90;99.90;;;;;;5133590;27;20407;-77
2023/05/24 10:00:16;;;;;;;12.68;3.03;;;15.00;99.90;;;;;;5133696;27;20055;-76
2023/05/24 10:02:44;;;;;;;11.27;3.05;;;15.20;99.90;;;;;;5134554;27;20055;-77
2023/05/24 10:05:14;;;;;;;12.93;3.33;;;15.20;99.90;;;;;;5133326;27;20054;-77
2023/05/24 10:07:41;;;;;;;12.18;2.75;;;15.20;99.90;;;;;;5133515;27;20482;-77
2023/05/24 10:10:08;;;;;;;10.93;2.50;;;15.20;99.90;;;;;;5133115;27;20047;-77
2023/05/24 10:12:41;;;;;;;13.82;3.17;;;15.30;99.90;;;;;;5133282;27;20049;-78
2023/05/24 10:15:09;;;;;;;11.43;3.30;;;15.40;99.90;;;;;;5133475;27;20070;-77
2023/05/24 10:17:35;;;;;;;11.77;3.15;;;15.40;99.90;;;;;;5133211;27;20051;-77
2023/05/24 10:20:01;;;;;;;12.95;2.78;;;15.50;99.90;;;;;;5133006;27;20096;-78
2023/05/24 10:22:27;;;;;;;11.27;3.00;;;15.50;99.90;;;;;;5133351;27;20498;-76
2023/05/24 10:24:58;;;;;;;11.13;2.80;;;15.50;99.90;;;;;;5133148;27;20062;-77
2023/05/24 10:27:30;;;;;;;13.07;3.00;;;15.40;99.90;;;;;;5133097;27;20050;-76
2023/05/24 10:30:11;;;;;;;19.63;3.93;;;15.50;99.90;;;;;;5133317;27;20074;-77
2023/05/24 10:32:39;;;;;;;14.60;2.92;;;15.70;99.90;;;;;;5132847;27;20097;-76
2023/05/24 10:35:06;;;;;;;11.02;2.88;;;15.90;99.90;;;;;;5132708;27;20473;-77
2023/05/24 10:37:33;;;;;;;12.65;2.67;;;15.90;99.90;;;;;;5132515;27;20051;-76
2023/05/24 10:39:59;;;;;;;12.65;2.80;;;16.00;99.90;;;;;;5132647;27;20061;-78
2023/05/24 10:42:25;;;;;;;11.88;2.75;;;16.00;99.90;;;;;;5113889;28;20048;-77
2023/05/24 10:44:55;;;;;;;15.13;3.53;;;16.10;99.90;;;;;;5112069;28;20035;-78
2023/05/24 10:47:27;;;;;;;15.93;3.13;;;16.20;99.90;;;;;;5114320;28;20527;-77
2023/05/24 10:49:58;;;;;;;10.85;2.90;;;16.30;99.90;;;;;;5116593;28;20047;-77
2023/05/24 10:52:36;;;;;;;13.25;3.30;;;16.40;99.90;;;;;;5116671;28;20061;-77
2023/05/24 10:55:08;;;;;;;14.85;2.72;;;16.60;99.90;;;;;;5116467;28;20120;-77
2023/05/24 10:57:40;;;;;;;9.73;2.85;;;16.90;99.90;;;;;;5116356;28;20055;-77
2023/05/24 11:00:27;;;;;;;10.95;2.63;;;17.00;99.90;;;;;;5117705;28;20047;-76
2023/05/24 11:03:09;;;;;;;9.88;2.50;;;16.90;99.90;;;;;;5116136;28;20091;-77
2023/05/24 11:05:48;;;;;;;11.85;3.00;;;17.10;99.90;;;;;;5115992;28;20637;-77
2023/05/24 11:08:24;;;;;;;13.27;3.10;;;17.20;99.90;;;;;;5116510;28;20047;-77
2023/05/24 11:11:03;;;;;;;13.93;3.00;;;17.30;99.90;;;;;;5116287;28;20042;-77
2023/05/24 11:13:29;;;;;;;11.65;2.75;;;17.30;99.90;;;;;;5116150;28;20084;-77
2023/05/24 11:15:59;;;;;;;13.50;2.78;;;17.50;99.90;;;;;;5116310;28;20051;-78
2023/05/24 11:18:25;;;;;;;13.98;2.83;;;17.40;99.90;;;;;;5115872;28;20048;-77
2023/05/24 11:20:56;;;;;;;11.15;3.17;;;17.50;99.90;;;;;;5115914;28;20117;-77
2023/05/24 11:23:22;;;;;;;11.40;2.97;;;17.80;99.90;;;;;;5116288;28;20055;-77
2023/05/24 11:25:48;;;;;;;13.35;2.80;;;17.60;99.90;;;;;;5115629;28;20402;-77
2023/05/24 11:28:14;;;;;;;10.60;2.83;;;17.80;99.90;;;;;;5132484;27;20035;-77
2023/05/24 11:30:44;;;;;;;9.75;2.67;;;17.90;99.90;;;;;;5136163;27;20398;-77
2023/05/24 11:33:18;;;;;;;12.68;2.55;;;17.90;99.90;;;;;;5129896;27;20413;-76
2023/05/24 11:35:52;;;;;;;14.70;2.83;;;17.90;99.90;;;;;;5121460;27;20063;-77
2023/05/24 11:38:19;;;;;;;9.40;2.72;;;17.80;99.90;;;;;;5115631;28;20048;-76
2023/05/24 11:40:47;;;;;;;11.73;2.45;;;17.90;99.90;;;;;;5115851;28;20055;-76
2023/05/24 11:43:17;;;;;;;10.57;2.72;;;18.00;99.90;;;;;;5115456;28;20587;-78
2023/05/24 11:45:52;;;;;;;11.85;2.83;;;18.00;99.90;;;;;;5115385;28;20149;-77
2023/05/24 11:48:18;;;;;;;12.02;2.47;;;18.10;99.90;;;;;;5115404;28;20047;-77
2023/05/24 11:50:49;;;;;;;9.88;2.53;;;18.10;99.90;;;;;;5115610;28;20039;-77
2023/05/24 11:53:17;;;;;;;7.85;2.40;;;18.20;99.90;;;;;;5115219;28;20487;-78
2023/05/24 11:55:43;;;;;;;9.20;2.75;;;18.30;99.90;;;;;;5115261;28;20055;-77
2023/05/24 11:58:44;;;;;;;11.07;2.90;;;18.30;99.90;;;;;;5114967;28;20101;-78
2023/05/24 12:01:26;;;;;;;8.40;2.88;;;18.40;99.90;;;;;;5129108;27;20070;-78
2023/05/24 12:03:53;;;;;;;9.75;2.90;;;18.30;99.90;;;;;;5133795;27;20494;-78
2023/05/24 12:06:19;;;;;;;13.23;2.90;;;18.40;99.90;;;;;;5134191;27;20096;-78
2023/05/24 12:08:46;;;;;;;14.57;3.05;;;18.30;99.90;;;;;;5133921;27;20390;-77
2023/05/24 12:11:15;;;;;;;9.30;2.47;;;18.40;99.90;;;;;;5134861;27;20088;-78
2023/05/24 12:13:40;;;;;;;8.90;2.50;;;18.40;99.90;;;;;;5135439;27;20086;-78
2023/05/24 12:16:07;;;;;;;11.35;2.80;;;18.30;99.90;;;;;;5135029;27;20078;-78
2023/05/24 12:18:32;;;;;;;11.10;2.92;;;18.30;99.90;;;;;;5135727;27;20039;-79
2023/05/24 12:20:58;;;;;;;10.35;2.65;;;18.30;99.90;;;;;;5135768;27;20061;-78
2023/05/24 12:23:28;;;;;;;8.85;2.42;;;18.30;99.90;;;;;;5135828;27;20043;-80
2023/05/24 12:26:12;;;;;;;13.07;3.40;;;18.60;99.90;;;;;;5135469;27;20047;-79
2023/05/24 12:28:38;;;;;;;11.20;2.72;;;18.70;99.90;;;;;;5135486;27;20043;-79
2023/05/24 12:31:05;;;;;;;12.52;3.00;;;18.60;99.90;;;;;;5135459;27;20099;-79
2023/05/24 12:33:31;;;;;;;11.32;2.83;;;18.80;99.90;;;;;;5135678;27;20039;-79
2023/05/24 12:35:57;;;;;;;10.60;2.90;;;18.90;99.90;;;;;;5135225;27;20050;-78
2023/05/24 12:38:24;;;;;;;9.70;2.75;;;18.80;99.90;;;;;;5135566;27;20043;-77
2023/05/24 12:40:53;;;;;;;8.50;2.67;;;18.60;99.90;;;;;;5135249;27;20394;-78
2023/05/24 12:43:19;;;;;;;7.70;2.05;;;18.70;99.90;;;;;;5135269;27;20043;-78